createdAt,value
2023-04-29T00:00:26.024Z,17.63
2023-04-29T00:04:29.453Z,15.53
2023-04-29T00:08:34.076Z,18.90
2023-04-29T00:12:38.360Z,15.80
2023-04-29T00:16:41.510Z,15.33
2023-04-29T00:20:44.956Z,17.00
2023-04-29T00:24:49.529Z,17.77
2023-04-29T00:28:52.860Z,18.30
2023-04-29T00:32:56.305Z,17.60
2023-04-29T00:36:59.554Z,16.23
2023-04-29T00:41:04.963Z,20.20
2023-04-29T00:45:09.548Z,20.10
2023-04-29T00:49:14.757Z,18.30
2023-04-29T00:53:19.089Z,17.23
2023-04-29T00:57:24.064Z,18.27
2023-04-29T01:01:29.122Z,16.90
2023-04-29T01:05:33.104Z,18.23
2023-04-29T01:09:54.982Z,15.23
2023-04-29T01:14:02.075Z,18.80
2023-04-29T01:18:12.206Z,17.80
2023-04-29T01:22:17.733Z,16.70
2023-04-29T01:26:22.545Z,16.93
2023-04-29T01:30:38.183Z,18.33
2023-04-29T01:34:52.016Z,19.90
2023-04-29T01:39:05.794Z,18.50
2023-04-29T01:43:12.886Z,18.07
2023-04-29T01:47:16.275Z,17.67
2023-04-29T01:51:19.441Z,15.57
2023-04-29T01:55:23.137Z,16.47
2023-04-29T01:59:29.697Z,16.87
2023-04-29T02:03:34.599Z,16.80
2023-04-29T02:07:38.136Z,15.57
2023-04-29T02:11:41.254Z,16.93
2023-04-29T02:15:45.903Z,15.73
2023-04-29T02:19:49.331Z,16.70
2023-04-29T02:23:54.434Z,14.80
2023-04-29T02:27:57.620Z,14.30
2023-04-29T02:32:02.409Z,14.50
2023-04-29T02:36:06.352Z,13.57
2023-04-29T02:40:11.508Z,12.53
2023-04-29T02:44:14.648Z,14.17
2023-04-29T02:48:19.271Z,14.60
2023-04-29T02:52:22.607Z,14.80
2023-04-29T02:56:25.895Z,16.50
2023-04-29T03:00:29.226Z,14.57
2023-04-29T03:04:33.909Z,15.53
2023-04-29T03:08:37.233Z,14.23
2023-04-29T03:12:40.609Z,15.53
2023-04-29T03:16:44.455Z,14.33
2023-04-29T03:20:49.232Z,16.87
2023-04-29T03:24:52.564Z,18.60
2023-04-29T03:28:55.812Z,14.80
2023-04-29T03:32:59.124Z,20.90
2023-04-29T03:37:03.826Z,19.83
2023-04-29T03:41:07.654Z,17.40
2023-04-29T03:45:13.301Z,14.13
2023-04-29T03:49:16.603Z,18.83
2023-04-29T03:53:22.089Z,15.87
2023-04-29T03:57:25.479Z,13.53
2023-04-29T04:01:28.652Z,15.93
2023-04-29T04:05:33.075Z,15.27
2023-04-29T04:09:37.668Z,15.00
2023-04-29T04:13:41.349Z,16.50
2023-04-29T04:17:45.071Z,15.00
2023-04-29T04:21:48.345Z,17.17
2023-04-29T04:25:53.998Z,16.83
2023-04-29T04:29:57.444Z,14.47
2023-04-29T04:34:00.849Z,15.80
2023-04-29T04:38:04.084Z,16.10
2023-04-29T04:42:08.675Z,16.60
2023-04-29T04:46:13.684Z,16.10
2023-04-29T04:50:17.291Z,20.00
2023-04-29T04:54:20.801Z,16.90
2023-04-29T04:58:26.868Z,16.97
2023-04-29T05:02:30.440Z,15.30
2023-04-29T05:06:33.955Z,15.40
2023-04-29T05:10:38.077Z,18.63
2023-04-29T05:14:42.766Z,14.63
2023-04-29T05:18:47.265Z,14.87
2023-04-29T05:22:50.878Z,14.90
2023-04-29T05:26:54.311Z,15.97
2023-04-29T05:31:00.763Z,12.30
2023-04-29T05:35:06.679Z,16.63
2023-04-29T05:39:10.607Z,13.00
2023-04-29T05:43:13.970Z,11.60
2023-04-29T05:47:18.628Z,10.57
2023-04-29T05:51:21.977Z,9.90
2023-04-29T05:55:25.684Z,9.60
2023-04-29T05:59:28.989Z,9.33
2023-04-29T06:03:34.735Z,7.43
2023-04-29T06:07:38.675Z,8.10
2023-04-29T06:11:44.397Z,7.07
2023-04-29T06:15:47.717Z,7.13
2023-04-29T06:19:52.807Z,5.67
2023-04-29T06:23:56.732Z,6.67
2023-04-29T06:27:59.907Z,8.93
2023-04-29T06:32:03.449Z,6.33
2023-04-29T06:36:08.974Z,7.60
2023-04-29T06:40:14.053Z,6.97
2023-04-29T06:44:18.104Z,6.57
2023-04-29T06:48:21.569Z,9.07
2023-04-29T06:52:26.195Z,6.70
2023-04-29T06:56:29.467Z,6.70
2023-04-29T07:00:32.729Z,5.83
2023-04-29T07:04:37.729Z,5.37
2023-04-29T07:08:42.652Z,5.87
2023-04-29T07:12:46.011Z,4.00
2023-04-29T07:16:49.760Z,3.13
2023-04-29T07:20:53.641Z,2.83
2023-04-29T07:24:59.753Z,4.83
2023-04-29T07:29:02.867Z,2.50
2023-04-29T07:33:06.342Z,2.53
2023-04-29T07:37:09.899Z,6.23
2023-04-29T07:41:14.420Z,8.17
2023-04-29T07:45:17.799Z,3.10
2023-04-29T07:49:21.156Z,2.80
2023-04-29T07:53:24.427Z,3.30
2023-04-29T07:57:29.163Z,3.20
2023-04-29T08:01:32.824Z,3.73
2023-04-29T08:05:36.622Z,2.60
2023-04-29T08:09:40.208Z,1.50
2023-04-29T08:13:44.859Z,2.10
2023-04-29T08:17:48.492Z,2.47
2023-04-29T08:21:52.226Z,2.03
2023-04-29T08:25:56.095Z,2.57
2023-04-29T08:30:00.860Z,2.30
2023-04-29T08:34:04.024Z,2.33
2023-04-29T08:38:07.941Z,1.77
2023-04-29T08:42:11.867Z,1.77
2023-04-29T08:46:18.783Z,2.00
2023-04-29T08:50:22.750Z,2.00
2023-04-29T08:54:26.351Z,1.80
2023-04-29T08:58:31.033Z,3.10
2023-04-29T09:02:42.671Z,1.80
2023-04-29T09:06:46.921Z,2.03
2023-04-29T09:10:50.488Z,2.13
2023-04-29T09:14:54.040Z,1.77
2023-04-29T09:18:59.005Z,1.80
2023-04-29T09:23:04.138Z,1.93
2023-04-29T09:27:08.132Z,2.20
2023-04-29T09:31:11.773Z,1.37
2023-04-29T09:35:27.222Z,2.50
2023-04-29T09:39:41.012Z,3.20
2023-04-29T09:43:44.250Z,1.87
2023-04-29T09:47:47.595Z,1.60
2023-04-29T09:51:56.414Z,1.80
2023-04-29T09:56:01.480Z,2.60
2023-04-29T10:00:05.216Z,1.97
2023-04-29T10:04:12.342Z,3.77
2023-04-29T10:08:17.070Z,1.40
2023-04-29T10:12:22.043Z,1.77
2023-04-29T10:16:30.560Z,1.30
2023-04-29T10:20:36.034Z,2.00
2023-04-29T10:24:45.872Z,1.47
2023-04-29T10:28:52.173Z,2.27
2023-04-29T10:32:57.255Z,1.40
2023-04-29T10:37:01.143Z,1.57
2023-04-29T10:41:12.945Z,1.73
2023-04-29T10:45:20.327Z,2.10
2023-04-29T10:49:25.503Z,1.57
2023-04-29T10:53:29.881Z,2.73
2023-04-29T10:57:34.755Z,11.03
2023-04-29T11:01:49.302Z,2.07
2023-04-29T11:06:10.488Z,1.43
2023-04-29T11:10:14.702Z,1.33
2023-04-29T11:14:25.296Z,1.50
2023-04-29T11:18:30.274Z,2.20
2023-04-29T11:22:34.579Z,1.53
2023-04-29T11:26:38.612Z,1.27
2023-04-29T11:30:44.177Z,1.67
2023-04-29T11:34:47.794Z,1.17
2023-04-29T11:38:51.213Z,2.50
2023-04-29T11:42:54.613Z,1.30
2023-04-29T11:47:04.666Z,1.83
2023-04-29T11:51:08.201Z,2.70
2023-04-29T11:55:21.106Z,2.70
2023-04-29T11:59:26.209Z,2.03
2023-04-29T12:03:30.898Z,3.03
2023-04-29T12:07:34.376Z,2.57
2023-04-29T12:11:39.312Z,1.60
2023-04-29T12:15:43.206Z,2.37
2023-04-29T12:19:49.333Z,1.60
2023-04-29T12:23:53.152Z,1.87
2023-04-29T12:28:03.209Z,1.40
2023-04-29T12:32:06.723Z,1.33
2023-04-29T12:36:19.520Z,0.80
2023-04-29T12:40:23.973Z,2.20
2023-04-29T12:44:27.922Z,1.30
2023-04-29T12:48:33.381Z,0.93
2023-04-29T12:52:38.632Z,1.13
2023-04-29T12:56:41.833Z,0.87
2023-04-29T13:00:45.171Z,0.83
2023-04-29T13:04:48.950Z,14.73
2023-04-29T13:08:53.897Z,0.73
2023-04-29T13:12:57.172Z,1.93
2023-04-29T13:17:01.171Z,6.37
2023-04-29T13:21:08.816Z,5.03
2023-04-29T13:25:13.951Z,1.40
2023-04-29T13:29:17.362Z,2.73
2023-04-29T13:33:20.787Z,1.83
2023-04-29T13:37:24.201Z,1.43
2023-04-29T13:41:32.684Z,2.10
2023-04-29T13:45:41.285Z,0.73
2023-04-29T13:50:10.008Z,0.67
2023-04-29T13:54:53.359Z,0.70
2023-04-29T14:02:45.792Z,0.73
2023-04-29T14:06:49.339Z,1.10
2023-04-29T14:10:52.777Z,1.30
2023-04-29T14:15:00.370Z,1.57
2023-04-29T14:19:04.307Z,0.70
2023-04-29T14:23:07.974Z,1.10
2023-04-29T14:27:11.664Z,0.60
2023-04-29T14:31:18.561Z,1.57
2023-04-29T14:35:23.202Z,1.30
2023-04-29T14:39:27.629Z,1.10
2023-04-29T14:43:31.200Z,0.60
2023-04-29T14:47:36.161Z,0.67
2023-04-29T14:51:39.971Z,0.70
2023-04-29T14:55:43.854Z,1.07
2023-04-29T14:59:47.727Z,0.70
2023-04-29T15:03:53.713Z,2.23
2023-04-29T15:07:58.958Z,0.70
2023-04-29T15:12:03.013Z,0.97
2023-04-29T15:16:08.008Z,0.80
2023-04-29T15:20:15.513Z,0.60
2023-04-29T15:24:21.061Z,0.60
2023-04-29T15:28:26.593Z,0.60
2023-04-29T15:32:33.966Z,0.50
2023-04-29T15:36:45.580Z,0.50
2023-04-29T15:40:52.381Z,0.60
2023-04-29T15:44:57.814Z,0.50
2023-04-29T15:49:05.740Z,0.60
2023-04-29T15:53:10.467Z,0.60
2023-04-29T15:57:16.454Z,0.80
2023-04-29T16:01:21.505Z,0.80
2023-04-29T16:05:28.058Z,0.60
2023-04-29T16:09:38.100Z,1.63
2023-04-29T16:13:41.999Z,0.80
2023-04-29T16:17:45.580Z,1.00
2023-04-29T16:21:48.980Z,1.47
2023-04-29T16:25:54.797Z,0.83
2023-04-29T16:29:58.704Z,0.70
2023-04-29T16:34:04.228Z,1.10
2023-04-29T16:38:10.333Z,1.13
2023-04-29T16:42:17.522Z,1.87
2023-04-29T16:46:20.957Z,1.03
2023-04-29T16:50:25.071Z,1.03
2023-04-29T16:54:28.884Z,0.80
2023-04-29T16:58:39.099Z,0.93
2023-04-29T17:02:43.265Z,0.90
2023-04-29T17:06:47.658Z,0.87
2023-04-29T17:10:51.402Z,1.30
2023-04-29T17:14:58.060Z,0.80
2023-04-29T17:19:02.602Z,1.80
2023-04-29T17:23:06.488Z,0.70
2023-04-29T17:27:11.917Z,0.93
2023-04-29T17:31:20.774Z,0.60
2023-04-29T17:35:25.716Z,0.83
2023-04-29T17:39:29.466Z,2.07
2023-04-29T17:43:35.710Z,0.93
2023-04-29T17:47:40.823Z,0.83
2023-04-29T17:51:47.758Z,0.97
2023-04-29T17:55:51.582Z,0.83
2023-04-29T17:59:58.745Z,1.17
2023-04-29T18:04:03.807Z,1.43
2023-04-29T18:08:08.287Z,1.20
2023-04-29T18:12:12.880Z,1.83
2023-04-29T18:16:16.408Z,1.30
2023-04-29T18:20:22.751Z,2.10
2023-04-29T18:24:30.000Z,1.47
2023-04-29T18:28:35.265Z,1.20
2023-04-29T18:32:43.241Z,2.83
2023-04-29T18:36:54.267Z,3.37
2023-04-29T18:40:57.691Z,1.60
2023-04-29T18:45:05.099Z,1.50
2023-04-29T18:49:16.050Z,3.03
2023-04-29T18:53:24.662Z,2.13
2023-04-29T18:57:32.804Z,6.70
2023-04-29T19:01:42.342Z,4.30
2023-04-29T19:05:53.784Z,5.00
2023-04-29T19:10:06.412Z,3.00
2023-04-29T19:18:36.505Z,2.07
2023-04-29T19:22:46.078Z,7.07
2023-04-29T19:26:57.289Z,10.57
2023-04-29T19:31:01.385Z,6.80
2023-04-29T19:35:05.579Z,4.60
2023-04-29T19:39:10.357Z,5.30
2023-04-29T19:43:17.082Z,3.37
2023-04-29T19:47:21.022Z,2.67
2023-04-29T19:51:27.339Z,4.47
2023-04-29T19:55:31.663Z,4.60
2023-04-29T19:59:37.997Z,4.77
2023-04-29T20:03:41.931Z,3.33
2023-04-29T20:07:45.534Z,3.00
2023-04-29T20:11:49.005Z,3.20
2023-04-29T20:15:55.050Z,4.87
2023-04-29T20:19:58.659Z,3.50
2023-04-29T20:24:02.013Z,3.53
2023-04-29T20:28:08.020Z,8.63
2023-04-29T20:32:15.821Z,3.57
2023-04-29T20:36:19.521Z,3.43
2023-04-29T20:40:22.988Z,3.50
2023-04-29T20:44:27.645Z,2.83
2023-04-29T20:48:33.727Z,5.40
2023-04-29T20:52:37.443Z,3.83
2023-04-29T20:56:40.852Z,5.00
2023-04-29T21:00:44.358Z,3.50
2023-04-29T21:04:49.459Z,4.60
2023-04-29T21:08:52.783Z,3.43
2023-04-29T21:12:55.987Z,3.80
2023-04-29T21:16:59.323Z,4.07
2023-04-29T21:21:03.914Z,3.40
2023-04-29T21:25:07.727Z,4.37
2023-04-29T21:29:11.124Z,3.57
2023-04-29T21:33:14.289Z,4.27
2023-04-29T21:37:19.015Z,6.77
2023-04-29T21:41:27.363Z,4.70
2023-04-29T21:45:31.022Z,4.40
2023-04-29T21:49:34.322Z,3.93
2023-04-29T21:53:39.248Z,5.00
2023-04-29T21:57:44.849Z,4.63
2023-04-29T22:02:00.251Z,4.17
2023-04-29T22:06:03.733Z,3.83
2023-04-29T22:10:09.690Z,3.73
2023-04-29T22:14:13.167Z,5.97
2023-04-29T22:18:16.337Z,7.77
2023-04-29T22:22:19.662Z,4.80
2023-04-29T22:26:25.582Z,4.33
2023-04-29T22:30:29.159Z,3.90
2023-04-29T22:34:32.242Z,4.47
2023-04-29T22:38:37.478Z,5.20
2023-04-29T22:42:43.047Z,5.03
2023-04-29T22:46:46.424Z,4.43
2023-04-29T22:50:56.655Z,6.63
2023-04-29T22:55:00.519Z,6.17
2023-04-29T22:59:05.280Z,8.20
2023-04-29T23:03:09.693Z,8.80
2023-04-29T23:07:15.240Z,5.50
2023-04-29T23:11:18.491Z,6.23
2023-04-29T23:15:23.344Z,6.33
2023-04-29T23:19:26.964Z,6.60
2023-04-29T23:23:30.244Z,4.73
2023-04-29T23:27:33.403Z,5.73
2023-04-29T23:31:38.070Z,5.90
2023-04-29T23:35:41.466Z,5.10
2023-04-29T23:39:44.726Z,5.80
2023-04-29T23:43:48.348Z,9.60
2023-04-29T23:47:53.075Z,4.47
2023-04-29T23:51:56.366Z,5.57
2023-04-29T23:55:59.581Z,6.63
